Terminal Aerodrome Forecast
Issued by NWS

Home | Current Version | Previous Version | Text Only | Print | Product List | Glossary On
Versions: 1 2 3 4 5 6 7 8 9 10 11 12 13
073
FTUS45 KPSR 271120
TAFBLH
TAF
KBLH 271120Z 2712/2812 24006KT P6SM SCT110 BKN250
     FM272100 27016G22KT P6SM FEW090
     FM280300 31015G25KT P6SM SKC=

USA.gov is the U.S. government's official web portal to all federal, state and local government web resources and services.